Time;durP1;ratioP1;P1;durP2;ratioP2;P2;SDS_P1;SDS_P2;PMS_P1;PMS_P2;Temp;Humidity;BMP_temperature;BMP_pressure;BME280_temperature;BME280_humidity;BME280_pressure;Samples;Min_cycle;Max_cycle;Signal;HPM_P1;HPM_P2
2022/04/30 00:01:54;;;;;;;;;;;12.40;99.90;;;;;;5035844;28;20349;-80
2022/04/30 00:04:20;;;;;;;;;;;12.10;99.90;;;;;;5053859;28;19951;-81
2022/04/30 00:06:45;;;;;;;;;;;11.90;99.90;;;;;;5053668;28;19908;-80
2022/04/30 00:09:11;;;;;;;;;;;12.00;99.90;;;;;;5053629;28;20377;-79
2022/04/30 00:11:37;;;;;;;;;;;11.90;99.90;;;;;;5053572;28;19905;-78
2022/04/30 00:14:02;;;;;;;;;;;11.80;99.90;;;;;;5035751;28;20387;-80
2022/04/30 00:16:28;;;;;;;;;;;11.80;99.90;;;;;;5053663;28;19999;-81
2022/04/30 00:18:56;;;;;;;;;;;11.70;99.90;;;;;;5053503;28;19909;-80
2022/04/30 00:21:21;;;;;;;;;;;11.70;99.90;;;;;;5053510;28;19905;-80
2022/04/30 00:23:47;;;;;;;;;;;11.80;99.90;;;;;;5053691;28;19905;-79
2022/04/30 00:26:12;;;;;;;;;;;11.70;99.90;;;;;;5053763;28;19960;-80
2022/04/30 00:28:38;;;;;;;;;;;11.70;99.90;;;;;;5035627;28;20275;-80
2022/04/30 00:31:04;;;;;;;;;;;11.70;99.90;;;;;;5053508;28;19905;-80
2022/04/30 00:33:30;;;;;;;;;;;11.60;99.90;;;;;;5053391;28;20353;-80
2022/04/30 00:35:56;;;;;;;;;;;11.60;99.90;;;;;;5053398;28;19909;-80
2022/04/30 00:38:22;;;;;;;;;;;11.80;99.90;;;;;;5052920;28;19917;-79
2022/04/30 00:40:47;;;;;;;;;;;11.70;99.90;;;;;;5035498;28;19905;-80
2022/04/30 00:43:13;;;;;;;;;;;11.60;99.90;;;;;;5035404;28;19905;-79
2022/04/30 00:45:44;;;;;;;;;;;11.40;99.90;;;;;;5035453;28;20273;-80
2022/04/30 00:48:09;;;;;;;;;;;11.40;99.90;;;;;;5053475;28;19905;-78
2022/04/30 00:50:36;;;;;;;;;;;11.40;99.90;;;;;;5053243;28;19909;-80
2022/04/30 00:53:03;;;;;;;;;;;11.30;99.90;;;;;;5053253;28;19932;-80
2022/04/30 00:55:30;;;;;;;;;;;11.20;99.90;;;;;;5053192;28;19911;-80
2022/04/30 00:57:58;;;;;;;;;;;11.20;99.90;;;;;;5053326;28;20003;-80
2022/04/30 01:00:26;;;;;;;;;;;10.90;99.90;;;;;;5053259;28;19904;-79
2022/04/30 01:02:52;;;;;;;;;;;11.00;99.90;;;;;;5055272;28;20280;-79
2022/04/30 01:05:17;;;;;;;;;;;11.00;99.90;;;;;;5056957;28;19950;-80
2022/04/30 01:07:43;;;;;;;;;;;11.00;99.90;;;;;;5057018;28;19936;-80
2022/04/30 01:10:09;;;;;;;;;;;11.00;99.90;;;;;;5056876;28;19928;-79
2022/04/30 01:12:35;;;;;;;;;;;10.90;99.90;;;;;;5056805;28;19991;-78
2022/04/30 01:15:05;;;;;;;;;;;11.00;99.90;;;;;;5056785;28;20391;-80
2022/04/30 01:17:31;;;;;;;;;;;10.80;99.90;;;;;;5056726;28;19904;-79
2022/04/30 01:19:57;;;;;;;;;;;10.80;99.90;;;;;;5056637;28;19935;-79
2022/04/30 01:22:30;;;;;;;;;;;10.70;99.90;;;;;;5056694;28;19905;-78
2022/04/30 01:24:58;;;;;;;;;;;10.80;99.90;;;;;;5056611;28;19905;-79
2022/04/30 01:27:26;;;;;;;;;;;10.60;99.90;;;;;;5056477;28;19905;-79
2022/04/30 01:29:55;;;;;;;;;;;10.60;99.90;;;;;;5056648;28;19944;-80
2022/04/30 01:38:05;;;;;;;;;;;11.00;99.90;;;;;;5056168;28;20285;-79
2022/04/30 01:40:31;;;;;;;;;;;10.70;99.90;;;;;;5056296;28;19909;-81
2022/04/30 01:43:01;;;;;;;;;;;10.80;99.90;;;;;;5056245;28;19905;-78
2022/04/30 01:45:27;;;;;;;;;;;10.80;99.90;;;;;;5056191;28;19968;-80
2022/04/30 01:47:53;;;;;;;;;;;10.80;99.90;;;;;;5056184;28;20258;-79
2022/04/30 01:50:19;;;;;;;;;;;10.80;99.90;;;;;;5056112;28;19905;-79
2022/04/30 01:52:44;;;;;;;;;;;10.60;99.90;;;;;;5038160;28;19958;-78
2022/04/30 01:55:10;;;;;;;;;;;10.50;99.90;;;;;;5038140;28;19905;-79
2022/04/30 01:57:40;;;;;;;;;;;10.60;99.90;;;;;;5056032;28;20284;-80
2022/04/30 02:00:06;;;;;;;;;;;10.50;99.90;;;;;;5055882;28;19916;-81
2022/04/30 02:02:36;;;;;;;;;;;10.50;99.90;;;;;;5055807;28;19911;-80
2022/04/30 02:05:05;;;;;;;;;;;10.40;99.90;;;;;;5056033;28;19912;-79
2022/04/30 02:07:33;;;;;;;;;;;10.40;99.90;;;;;;5055761;28;19912;-79
2022/04/30 02:09:59;;;;;;;;;;;10.30;99.90;;;;;;5055703;28;20379;-80
2022/04/30 02:12:27;;;;;;;;;;;10.10;99.90;;;;;;5056155;28;19978;-79
2022/04/30 02:14:54;;;;;;;;;;;10.10;99.90;;;;;;5054588;28;19951;-80
2022/04/30 02:17:20;;;;;;;;;;;10.10;99.90;;;;;;5037733;28;19908;-78
2022/04/30 02:22:31;;;;;;;;;;;10.00;99.90;;;;;;5055830;28;19912;-79
2022/04/30 02:24:57;;;;;;;;;;;10.00;99.90;;;;;;5055517;28;20285;-78
2022/04/30 02:27:24;;;;;;;;;;;10.00;99.90;;;;;;5055532;28;19977;-80
2022/04/30 02:29:49;;;;;;;;;;;9.80;99.90;;;;;;5055508;28;19966;-78
2022/04/30 02:32:15;;;;;;;;;;;9.60;99.90;;;;;;5055369;28;20365;-80
2022/04/30 02:34:40;;;;;;;;;;;9.70;99.90;;;;;;5055322;28;19987;-80
2022/04/30 02:37:06;;;;;;;;;;;10.00;99.90;;;;;;5055085;28;19971;-80
2022/04/30 02:39:32;;;;;;;;;;;9.90;99.90;;;;;;5055127;28;19965;-78
2022/04/30 02:41:57;;;;;;;;;;;9.80;99.90;;;;;;5055174;28;19911;-79
2022/04/30 02:44:26;;;;;;;;;;;9.70;99.90;;;;;;5055559;28;20369;-80
2022/04/30 02:46:55;;;;;;;;;;;9.60;99.90;;;;;;5055086;28;19916;-80
2022/04/30 02:49:21;;;;;;;;;;;9.50;99.90;;;;;;5055029;28;19905;-79
2022/04/30 02:51:48;;;;;;;;;;;9.50;99.90;;;;;;5054994;28;19999;-80
2022/04/30 02:54:15;;;;;;;;;;;9.50;99.90;;;;;;5054930;28;20361;-79
2022/04/30 02:56:41;;;;;;;;;;;9.60;99.90;;;;;;5054894;28;19939;-80
2022/04/30 03:01:50;;;;;;;;;;;9.50;99.90;;;;;;5054485;28;19912;-79
2022/04/30 03:04:16;;;;;;;;;;;9.60;99.90;;;;;;5054727;28;19908;-78
2022/04/30 03:06:41;;;;;;;;;;;9.60;99.90;;;;;;5054730;28;19911;-78
2022/04/30 03:09:07;;;;;;;;;;;9.70;99.90;;;;;;5036745;28;19944;-80
2022/04/30 03:11:32;;;;;;;;;;;9.60;99.90;;;;;;5054603;28;19912;-80
2022/04/30 03:13:58;;;;;;;;;;;9.60;99.90;;;;;;5054530;28;19911;-80
2022/04/30 03:21:52;;;;;;;;;;;9.50;99.90;;;;;;5054464;28;19915;-79
2022/04/30 03:24:18;;;;;;;;;;;9.50;99.90;;;;;;5054246;28;19904;-79
2022/04/30 03:26:44;;;;;;;;;;;9.40;99.90;;;;;;5054088;28;19911;-80
2022/04/30 03:29:10;;;;;;;;;;;9.40;99.90;;;;;;5054237;28;20000;-79
2022/04/30 03:31:39;;;;;;;;;;;9.40;99.90;;;;;;5054225;28;20348;-79
2022/04/30 03:34:08;;;;;;;;;;;9.50;99.90;;;;;;5054208;28;19992;-80
2022/04/30 03:36:34;;;;;;;;;;;9.40;99.90;;;;;;5053922;28;19917;-79
2022/04/30 03:39:00;;;;;;;;;;;9.30;99.90;;;;;;5036161;28;19974;-77
2022/04/30 03:41:26;;;;;;;;;;;9.20;99.90;;;;;;5054216;28;20373;-79
2022/04/30 03:43:51;;;;;;;;;;;9.40;99.90;;;;;;5054024;28;20327;-79
2022/04/30 03:46:17;;;;;;;;;;;9.60;99.90;;;;;;5053968;28;19950;-81
2022/04/30 03:48:44;;;;;;;;;;;9.70;99.90;;;;;;5053869;28;19966;-79
2022/04/30 03:51:10;;;;;;;;;;;9.70;99.90;;;;;;5036067;28;19905;-79
2022/04/30 03:53:36;;;;;;;;;;;9.60;99.90;;;;;;5053863;28;19915;-80
2022/04/30 03:56:01;;;;;;;;;;;9.60;99.90;;;;;;5053840;28;19999;-79
2022/04/30 03:58:27;;;;;;;;;;;9.50;99.90;;;;;;5035959;28;20281;-78
2022/04/30 04:00:53;;;;;;;;;;;9.20;99.90;;;;;;5053755;28;19904;-80
2022/04/30 04:03:19;;;;;;;;;;;9.20;99.90;;;;;;5035857;28;20341;-81
2022/04/30 04:05:47;;;;;;;;;;;9.20;99.90;;;;;;5035824;28;19905;-79
2022/04/30 04:08:14;;;;;;;;;;;9.40;99.90;;;;;;5053593;28;19905;-79
2022/04/30 04:10:41;;;;;;;;;;;9.40;99.90;;;;;;5053584;28;19911;-80
2022/04/30 04:18:35;;;;;;;;;;;9.40;99.90;;;;;;5053648;28;19951;-80
2022/04/30 04:21:00;;;;;;;;;;;9.30;99.90;;;;;;5053572;28;19905;-79
2022/04/30 04:23:26;;;;;;;;;;;9.40;99.90;;;;;;5053677;28;19995;-79
2022/04/30 04:26:01;;;;;;;;;;;9.30;99.90;;;;;;5053515;28;20324;-80
2022/04/30 04:28:29;;;;;;;;;;;9.20;99.90;;;;;;5053832;28;20288;-78
2022/04/30 04:30:57;;;;;;;;;;;9.30;99.90;;;;;;5053536;28;19944;-79
2022/04/30 04:33:22;;;;;;;;;;;9.10;99.90;;;;;;5053586;28;19905;-78
2022/04/30 04:35:48;;;;;;;;;;;9.00;99.90;;;;;;5053434;28;20278;-78
2022/04/30 04:38:13;;;;;;;;;;;8.90;99.90;;;;;;5055886;28;19923;-78
2022/04/30 04:40:40;;;;;;;;;;;9.00;99.90;;;;;;5057582;28;19963;-79
2022/04/30 04:43:05;;;;;;;;;;;9.00;99.90;;;;;;5057468;28;20300;-80
2022/04/30 04:45:31;;;;;;;;;;;8.90;99.90;;;;;;5057367;28;19904;-78
2022/04/30 04:47:57;;;;;;;;;;;8.90;99.90;;;;;;5057300;28;19904;-80
2022/04/30 04:50:25;;;;;;;;;;;9.00;99.90;;;;;;5057596;28;19970;-80
2022/04/30 04:52:51;;;;;;;;;;;9.10;99.90;;;;;;5039327;28;20003;-78
2022/04/30 04:55:17;;;;;;;;;;;9.10;99.90;;;;;;5057243;28;20021;-79
2022/04/30 04:57:42;;;;;;;;;;;9.10;99.90;;;;;;5039218;28;19919;-79
2022/04/30 05:00:09;;;;;;;;;;;9.30;99.90;;;;;;5057117;28;19905;-80
2022/04/30 05:02:35;;;;;;;;;;;9.20;99.90;;;;;;5057195;28;19936;-80
2022/04/30 05:05:00;;;;;;;;;;;9.20;99.90;;;;;;5057049;28;19909;-79
2022/04/30 05:07:26;;;;;;;;;;;9.10;99.90;;;;;;5057162;28;19909;-78
2022/04/30 05:09:52;;;;;;;;;;;9.20;99.90;;;;;;5057237;28;19951;-80
2022/04/30 05:12:17;;;;;;;;;;;9.30;99.90;;;;;;5056899;28;20320;-79
2022/04/30 05:14:43;;;;;;;;;;;9.30;99.90;;;;;;5038962;28;19905;-78
2022/04/30 05:17:09;;;;;;;;;;;9.30;99.90;;;;;;5038822;28;20369;-81
2022/04/30 05:19:35;;;;;;;;;;;9.40;99.90;;;;;;5057100;28;19905;-78
2022/04/30 05:22:00;;;;;;;;;;;9.30;99.90;;;;;;5056645;28;20361;-79
2022/04/30 05:24:26;;;;;;;;;;;9.30;99.90;;;;;;5056735;28;19909;-81
2022/04/30 05:26:52;;;;;;;;;;;9.30;99.90;;;;;;5056618;28;20369;-79
2022/04/30 05:29:17;;;;;;;;;;;9.40;99.90;;;;;;5056499;28;19908;-80
2022/04/30 05:31:43;;;;;;;;;;;9.40;99.90;;;;;;5056457;28;19905;-79
2022/04/30 05:34:09;;;;;;;;;;;9.40;99.90;;;;;;5056303;28;19915;-78
2022/04/30 05:36:35;;;;;;;;;;;9.60;99.90;;;;;;5056318;28;19917;-78
2022/04/30 05:39:01;;;;;;;;;;;9.40;99.90;;;;;;5038167;28;19908;-79
2022/04/30 05:41:26;;;;;;;;;;;9.40;99.90;;;;;;5056348;28;19905;-79
2022/04/30 05:43:52;;;;;;;;;;;9.40;99.90;;;;;;5056250;28;19930;-77
2022/04/30 05:46:18;;;;;;;;;;;9.40;99.90;;;;;;5056224;28;19959;-80
2022/04/30 05:48:43;;;;;;;;;;;9.60;99.90;;;;;;5055825;28;19909;-80
2022/04/30 05:51:09;;;;;;;;;;;9.70;99.90;;;;;;5056230;28;19988;-80
2022/04/30 05:53:35;;;;;;;;;;;10.00;99.90;;;;;;5038236;28;20250;-80
2022/04/30 05:56:00;;;;;;;;;;;10.40;99.90;;;;;;5056212;28;20277;-80
2022/04/30 05:58:26;;;;;;;;;;;10.50;99.90;;;;;;5056018;28;19940;-79
2022/04/30 06:00:52;;;;;;;;;;;10.60;99.90;;;;;;5055972;28;19909;-79
2022/04/30 06:03:17;;;;;;;;;;;10.90;99.90;;;;;;5055931;28;19905;-80
2022/04/30 06:05:43;;;;;;;;;;;11.20;99.90;;;;;;5056317;28;20026;-80
2022/04/30 06:08:08;;;;;;;;;;;11.50;99.90;;;;;;5056146;28;20276;-80
2022/04/30 06:10:34;;;;;;;;;;;11.50;99.90;;;;;;5055633;28;20374;-79
2022/04/30 06:13:00;;;;;;;;;;;11.80;99.90;;;;;;5055580;28;20007;-81
2022/04/30 06:15:26;;;;;;;;;;;12.00;99.90;;;;;;5055819;28;19991;-79
2022/04/30 06:17:52;;;;;;;;;;;11.90;99.90;;;;;;5055672;28;19928;-79
2022/04/30 06:20:17;;;;;;;;;;;11.90;99.90;;;;;;5055791;28;19905;-78
2022/04/30 06:22:43;;;;;;;;;;;12.10;99.90;;;;;;5055563;28;19904;-79
2022/04/30 06:25:08;;;;;;;;;;;12.10;99.90;;;;;;5055569;28;19905;-79
2022/04/30 06:27:34;;;;;;;;;;;12.10;99.90;;;;;;5055479;28;19951;-80
2022/04/30 06:30:00;;;;;;;;;;;12.10;99.90;;;;;;5055441;28;19944;-80
2022/04/30 06:32:26;;;;;;;;;;;12.20;99.90;;;;;;5055378;28;20015;-81
2022/04/30 06:34:52;;;;;;;;;;;12.50;99.90;;;;;;5055350;28;20284;-80
2022/04/30 06:37:17;;;;;;;;;;;12.80;99.90;;;;;;5055085;28;20293;-79
2022/04/30 06:39:46;;;;;;;;;;;13.00;99.90;;;;;;5037273;28;20404;-79
2022/04/30 06:42:11;;;;;;;;;;;13.10;99.90;;;;;;5055169;28;19904;-81
2022/04/30 06:44:37;;;;;;;;;;;13.30;99.90;;;;;;5037187;28;19911;-79
2022/04/30 06:47:03;;;;;;;;;;;13.50;99.90;;;;;;5055001;28;19912;-80
2022/04/30 06:49:29;;;;;;;;;;;13.80;99.90;;;;;;5054975;28;19916;-80
2022/04/30 06:51:54;;;;;;;;;;;14.20;99.90;;;;;;5055059;28;20357;-80
2022/04/30 06:57:16;;;;;;;;;;;16.50;99.50;;;;;;5054641;28;19920;-79
2022/04/30 06:59:42;;;;;;;;;;;17.30;96.50;;;;;;5036049;28;19908;-79
2022/04/30 07:02:18;;;;;;;;;;;17.70;93.20;;;;;;5054897;28;20420;-80
2022/04/30 07:04:46;;;;;;;;;;;18.00;92.50;;;;;;5054919;28;19950;-81
2022/04/30 07:07:12;;;;;;;;;;;18.10;91.90;;;;;;5054713;28;19912;-79
2022/04/30 07:09:38;;;;;;;;;;;18.40;91.70;;;;;;5054597;28;19908;-79
2022/04/30 07:12:06;;;;;;;;;;;18.20;91.80;;;;;;5054653;28;19951;-79
2022/04/30 07:14:36;;;;;;;;;;;18.20;91.10;;;;;;5054555;28;19904;-80
2022/04/30 07:17:05;;;;;;;;;;;17.90;87.80;;;;;;5054434;28;19950;-82
2022/04/30 07:19:31;;;;;;;;;;;17.90;89.10;;;;;;5054471;28;19905;-80
2022/04/30 07:21:56;;;;;;;;;;;17.30;86.60;;;;;;5054367;28;19909;-80
2022/04/30 07:24:22;;;;;;;;;;;17.50;88.60;;;;;;5054278;28;20285;-79
2022/04/30 07:26:47;;;;;;;;;;;17.60;89.90;;;;;;5054286;28;19905;-80
2022/04/30 07:29:13;;;;;;;;;;;17.90;84.30;;;;;;5054148;28;20272;-82
2022/04/30 07:31:39;;;;;;;;;;;17.90;85.10;;;;;;5054136;28;19959;-81
2022/04/30 07:34:04;;;;;;;;;;;17.90;82.50;;;;;;5054511;28;19905;-79
2022/04/30 07:36:31;;;;;;;;;;;18.00;79.30;;;;;;5054087;28;19912;-79
2022/04/30 07:38:57;;;;;;;;;;;17.80;76.60;;;;;;5053951;28;20393;-78
2022/04/30 07:41:23;;;;;;;;;;;17.40;81.00;;;;;;5054107;28;19954;-79
2022/04/30 07:43:49;;;;;;;;;;;17.90;80.20;;;;;;5053920;28;19904;-79
2022/04/30 07:46:16;;;;;;;;;;;18.40;78.50;;;;;;5072161;28;19991;-80
2022/04/30 07:48:42;;;;;;;;;;;18.40;77.60;;;;;;5074223;28;19908;-80
2022/04/30 07:51:16;;;;;;;;;;;18.50;75.30;;;;;;5074174;28;19905;-78
2022/04/30 07:53:42;;;;;;;;;;;18.60;73.90;;;;;;5055630;28;19905;-79
2022/04/30 07:56:07;;;;;;;;;;;19.00;74.10;;;;;;5073870;28;19904;-81
2022/04/30 07:58:33;;;;;;;;;;;18.50;74.40;;;;;;5074402;28;19912;-80
2022/04/30 08:00:59;;;;;;;;;;;18.40;73.80;;;;;;5074048;28;19916;-79
2022/04/30 08:03:25;;;;;;;;;;;18.70;74.50;;;;;;5073778;28;20364;-79
2022/04/30 08:05:50;;;;;;;;;;;19.00;71.70;;;;;;5055754;28;19943;-79
2022/04/30 08:08:16;;;;;;;;;;;19.70;72.10;;;;;;5073936;28;19916;-79
2022/04/30 08:10:42;;;;;;;;;;;19.60;69.70;;;;;;5073636;28;19912;-77
2022/04/30 08:13:08;;;;;;;;;;;19.80;68.20;;;;;;5073533;28;19905;-79
2022/04/30 08:15:34;;;;;;;;;;;19.80;68.60;;;;;;5073266;28;19916;-79
2022/04/30 08:17:59;;;;;;;;;;;20.50;66.60;;;;;;5073429;28;19997;-76
2022/04/30 08:20:25;;;;;;;;;;;20.20;65.40;;;;;;5073712;28;20350;-80
2022/04/30 08:22:51;;;;;;;;;;;19.90;64.30;;;;;;5073793;28;19905;-76
2022/04/30 08:25:16;;;;;;;;;;;20.00;63.50;;;;;;5073520;28;20342;-79
2022/04/30 08:27:42;;;;;;;;;;;20.00;63.80;;;;;;5073814;28;19943;-77
2022/04/30 08:30:09;;;;;;;;;;;20.00;62.70;;;;;;5070287;28;19917;-78
2022/04/30 08:32:35;;;;;;;;;;;20.80;63.80;;;;;;5073723;28;19991;-78
2022/04/30 08:35:01;;;;;;;;;;;21.70;59.90;;;;;;5073734;28;20003;-77
2022/04/30 08:37:30;;;;;;;;;;;21.10;58.10;;;;;;5073400;28;19990;-77
2022/04/30 08:39:56;;;;;;;;;;;21.00;59.70;;;;;;5072199;28;21366;-78
2022/04/30 08:42:23;;;;;;;;;;;22.00;58.50;;;;;;5055567;28;19904;-78
2022/04/30 08:44:48;;;;;;;;;;;22.70;57.20;;;;;;5055255;28;19953;-78
2022/04/30 08:47:14;;;;;;;;;;;24.20;55.40;;;;;;5073636;28;19909;-79
2022/04/30 08:49:41;;;;;;;;;;;24.50;53.10;;;;;;5071960;28;19909;-78
2022/04/30 08:52:07;;;;;;;;;;;22.50;54.80;;;;;;5073767;28;19909;-77
2022/04/30 08:54:33;;;;;;;;;;;20.70;57.00;;;;;;5073635;28;19919;-78
2022/04/30 08:56:58;;;;;;;;;;;22.00;57.10;;;;;;5073399;28;19909;-78
2022/04/30 08:59:24;;;;;;;;;;;22.70;56.20;;;;;;5073680;28;19908;-77
2022/04/30 09:01:51;;;;;;;;;;;23.70;53.60;;;;;;5071263;28;19985;-78
2022/04/30 09:04:17;;;;;;;;;;;23.20;54.10;;;;;;5073569;28;19993;-78
2022/04/30 09:06:49;;;;;;;;;;;22.40;55.30;;;;;;5073272;28;19935;-78
2022/04/30 09:09:22;;;;;;;;;;;21.10;56.10;;;;;;5053499;28;19913;-79
2022/04/30 09:11:48;;;;;;;;;;;20.20;58.60;;;;;;5070931;28;19904;-80
2022/04/30 09:14:21;;;;;;;;;;;20.60;58.40;;;;;;5055452;28;20011;-78
2022/04/30 09:16:47;;;;;;;;;;;20.50;58.40;;;;;;5073569;28;19926;-78
2022/04/30 09:19:13;;;;;;;;;;;20.40;59.30;;;;;;5073251;28;20316;-78
2022/04/30 09:21:47;;;;;;;;;;;20.70;58.30;;;;;;5070217;28;19943;-78
2022/04/30 09:24:14;;;;;;;;;;;20.50;58.70;;;;;;5075770;28;20273;-78
2022/04/30 09:26:41;;;;;;;;;;;20.90;58.50;;;;;;5058864;28;19948;-77
2022/04/30 09:29:20;;;;;;;;;;;21.80;57.20;;;;;;5076978;28;20272;-78
2022/04/30 09:31:52;;;;;;;;;;;22.10;55.10;;;;;;5073799;28;19905;-77
2022/04/30 09:39:47;;;;;;;;;;;21.60;55.60;;;;;;5069691;28;19923;-79
2022/04/30 09:42:12;;;;;;;;;;;21.30;55.40;;;;;;5075202;28;19904;-78
2022/04/30 09:44:40;;;;;;;;;;;21.90;55.80;;;;;;5075672;28;21288;-78
2022/04/30 09:47:06;;;;;;;;;;;21.50;55.80;;;;;;5055439;28;19916;-80
2022/04/30 09:55:01;;;;;;;;;;;21.90;55.60;;;;;;5075938;28;19997;-77
2022/04/30 09:57:30;;;;;;;;;;;24.50;51.50;;;;;;5075769;28;19947;-78
2022/04/30 09:59:57;;;;;;;;;;;28.00;47.80;;;;;;5073668;28;21256;-78
2022/04/30 10:02:25;;;;;;;;;;;30.40;44.10;;;;;;5075602;28;20005;-79
2022/04/30 10:04:51;;;;;;;;;;;28.50;42.80;;;;;;5075124;28;19904;-78
2022/04/30 10:07:19;;;;;;;;;;;26.00;45.70;;;;;;5075424;28;19912;-78
2022/04/30 10:10:07;;;;;;;;;;;24.70;47.60;;;;;;5073768;28;19915;-79
2022/04/30 10:12:37;;;;;;;;;;;24.20;48.90;;;;;;5066918;28;19904;-79
2022/04/30 10:15:18;;;;;;;;;;;25.60;46.60;;;;;;5075414;28;19904;-78
2022/04/30 10:17:47;;;;;;;;;;;29.30;43.90;;;;;;5075277;28;19950;-79
2022/04/30 10:20:18;;;;;;;;;;;26.70;43.90;;;;;;5075409;28;19995;-77
2022/04/30 10:22:51;;;;;;;;;;;25.30;46.30;;;;;;5057361;28;19904;-79
2022/04/30 10:25:17;;;;;;;;;;;26.50;46.30;;;;;;5076171;28;20313;-79
2022/04/30 10:27:47;;;;;;;;;;;26.60;45.40;;;;;;5075361;28;19920;-77
2022/04/30 10:30:18;;;;;;;;;;;25.90;45.30;;;;;;5075617;28;19912;-78
2022/04/30 10:32:53;;;;;;;;;;;25.90;46.00;;;;;;5075407;28;20416;-78
2022/04/30 10:35:27;;;;;;;;;;;25.10;47.00;;;;;;5074845;28;20299;-79
2022/04/30 10:37:52;;;;;;;;;;;24.50;48.50;;;;;;5057073;28;19970;-80
2022/04/30 10:40:18;;;;;;;;;;;25.30;47.60;;;;;;5075412;28;20311;-79
2022/04/30 10:42:45;;;;;;;;;;;25.00;46.60;;;;;;5075261;28;20287;-80
2022/04/30 10:45:15;;;;;;;;;;;24.40;47.30;;;;;;5057261;28;19911;-80
2022/04/30 10:47:54;;;;;;;;;;;24.30;48.20;;;;;;5074419;28;19912;-78
2022/04/30 10:50:19;;;;;;;;;;;24.30;48.30;;;;;;5072997;28;20008;-78
2022/04/30 10:52:47;;;;;;;;;;;27.30;46.60;;;;;;5073078;28;20015;-79
2022/04/30 10:55:12;;;;;;;;;;;28.70;44.10;;;;;;5073133;28;19908;-79
2022/04/30 10:57:41;;;;;;;;;;;27.60;43.30;;;;;;5073348;28;19904;-78
2022/04/30 11:00:07;;;;;;;;;;;26.00;45.00;;;;;;5073550;28;19960;-79
2022/04/30 11:02:33;;;;;;;;;;;24.90;46.90;;;;;;5073994;28;19908;-78
2022/04/30 11:04:59;;;;;;;;;;;25.40;47.00;;;;;;5056851;28;19912;-79
2022/04/30 11:07:29;;;;;;;;;;;24.90;46.80;;;;;;5074688;28;20034;-79
2022/04/30 11:09:55;;;;;;;;;;;25.50;46.00;;;;;;5074541;28;20282;-79
2022/04/30 11:12:21;;;;;;;;;;;25.70;46.20;;;;;;5056707;28;19904;-79
2022/04/30 11:14:47;;;;;;;;;;;27.60;44.80;;;;;;5074827;28;19904;-79
2022/04/30 11:17:12;;;;;;;;;;;26.60;44.40;;;;;;5074497;28;19908;-78
2022/04/30 11:19:41;;;;;;;;;;;25.40;45.70;;;;;;5074445;28;19930;-78
2022/04/30 11:22:07;;;;;;;;;;;24.50;47.30;;;;;;5056468;28;19931;-80
2022/04/30 11:24:33;;;;;;;;;;;27.30;47.00;;;;;;5074542;28;19904;-80
2022/04/30 11:27:00;;;;;;;;;;;31.30;43.50;;;;;;5056431;28;20451;-79
2022/04/30 11:29:25;;;;;;;;;;;33.00;40.00;;;;;;5074224;28;20284;-79
2022/04/30 11:31:52;;;;;;;;;;;31.20;39.50;;;;;;5074224;28;19912;-80
2022/04/30 11:34:18;;;;;;;;;;;28.40;41.70;;;;;;5074228;28;19954;-77
2022/04/30 11:36:44;;;;;;;;;;;28.10;42.90;;;;;;5074014;28;19913;-79
2022/04/30 11:39:11;;;;;;;;;;;31.70;40.30;;;;;;5074171;28;19913;-80
2022/04/30 11:41:44;;;;;;;;;;;30.50;40.30;;;;;;5074105;28;19912;-79
2022/04/30 11:44:10;;;;;;;;;;;29.70;41.00;;;;;;5074224;28;19912;-81
2022/04/30 11:46:36;;;;;;;;;;;31.30;40.60;;;;;;5074002;28;19904;-77
2022/04/30 11:49:06;;;;;;;;;;;34.30;40.10;;;;;;5073971;28;19997;-79
2022/04/30 11:51:32;;;;;;;;;;;32.80;38.50;;;;;;5073913;28;19905;-81
2022/04/30 11:53:57;;;;;;;;;;;32.70;41.40;;;;;;5073629;28;19919;-78
2022/04/30 11:56:23;;;;;;;;;;;30.60;40.80;;;;;;5074061;28;20007;-79
2022/04/30 11:58:49;;;;;;;;;;;29.10;42.00;;;;;;5073723;28;19909;-79
2022/04/30 12:01:21;;;;;;;;;;;28.60;43.40;;;;;;5073782;28;19908;-79
2022/04/30 12:03:52;;;;;;;;;;;31.50;41.40;;;;;;5055750;28;20331;-80
2022/04/30 12:06:18;;;;;;;;;;;30.50;40.20;;;;;;5074066;28;19904;-81
2022/04/30 12:08:44;;;;;;;;;;;31.00;41.10;;;;;;5073773;28;19908;-79
2022/04/30 12:11:10;;;;;;;;;;;33.60;39.80;;;;;;5073765;28;19966;-79
2022/04/30 12:13:35;;;;;;;;;;;35.00;37.20;;;;;;5073868;28;19912;-79
2022/04/30 12:16:01;;;;;;;;;;;31.30;38.50;;;;;;5073668;28;20409;-79
2022/04/30 12:27:02;;;;;;;;;;;35.70;37.90;;;;;;5073453;28;19943;-80
2022/04/30 12:29:30;;;;;;;;;;;33.80;37.70;;;;;;5073491;28;19905;-80
2022/04/30 12:31:56;;;;;;;;;;;29.50;40.80;;;;;;5055517;28;19954;-79
2022/04/30 12:34:22;;;;;;;;;;;27.70;42.90;;;;;;5073483;28;19919;-80
2022/04/30 12:36:54;;;;;;;;;;;28.00;45.20;;;;;;5073358;28;19916;-78
2022/04/30 12:39:21;;;;;;;;;;;30.90;41.80;;;;;;5073356;28;19959;-80
2022/04/30 12:41:46;;;;;;;;;;;34.70;38.80;;;;;;5073382;28;19966;-76
2022/04/30 12:44:12;;;;;;;;;;;37.70;36.40;;;;;;5073593;28;19908;-77
2022/04/30 12:46:41;;;;;;;;;;;38.00;34.00;;;;;;5073661;28;19905;-77
2022/04/30 12:49:06;;;;;;;;;;;37.20;34.60;;;;;;5073525;28;19908;-78
2022/04/30 12:51:32;;;;;;;;;;;38.30;33.90;;;;;;5073216;28;19954;-78
2022/04/30 12:53:58;;;;;;;;;;;38.90;33.50;;;;;;5073232;28;19904;-77
2022/04/30 12:56:24;;;;;;;;;;;37.20;34.10;;;;;;5073274;28;19905;-80
2022/04/30 12:58:50;;;;;;;;;;;33.40;36.60;;;;;;5075645;28;20352;-78
2022/04/30 13:01:15;;;;;;;;;;;31.90;39.40;;;;;;5077114;28;19908;-79
2022/04/30 13:03:41;;;;;;;;;;;32.10;38.70;;;;;;5077230;28;19905;-79
2022/04/30 13:06:07;;;;;;;;;;;35.50;35.60;;;;;;5077050;28;19912;-80
2022/04/30 13:14:00;;;;;;;;;;;37.90;32.90;;;;;;5076673;28;19919;-79
2022/04/30 13:16:26;;;;;;;;;;;36.60;33.80;;;;;;5076869;28;19908;-79
2022/04/30 13:18:52;;;;;;;;;;;34.90;34.70;;;;;;5077140;28;19952;-78
2022/04/30 13:21:18;;;;;;;;;;;34.40;37.50;;;;;;5077113;28;19908;-79
2022/04/30 13:23:43;;;;;;;;;;;32.70;37.10;;;;;;5076810;28;20408;-79
2022/04/30 13:26:11;;;;;;;;;;;31.10;39.30;;;;;;5058719;28;19908;-78
2022/04/30 13:28:36;;;;;;;;;;;29.80;41.00;;;;;;5076663;28;19915;-79
2022/04/30 13:31:02;;;;;;;;;;;28.80;42.60;;;;;;5076936;28;19905;-78
2022/04/30 13:33:28;;;;;;;;;;;28.50;42.80;;;;;;5076793;28;20364;-79
2022/04/30 13:35:53;;;;;;;;;;;28.80;42.80;;;;;;5076627;28;19905;-79
2022/04/30 13:38:19;;;;;;;;;;;28.10;42.60;;;;;;5076174;28;19917;-78
2022/04/30 13:40:45;;;;;;;;;;;29.10;42.30;;;;;;5076831;28;19904;-77
2022/04/30 13:43:10;;;;;;;;;;;29.30;41.40;;;;;;5076713;28;19912;-79
2022/04/30 13:45:36;;;;;;;;;;;30.70;39.80;;;;;;5076458;28;19909;-79
2022/04/30 13:48:02;;;;;;;;;;;30.80;39.70;;;;;;5076313;28;19904;-78
2022/04/30 13:50:28;;;;;;;;;;;29.90;40.70;;;;;;5076332;28;19904;-78
2022/04/30 13:52:53;;;;;;;;;;;28.40;42.60;;;;;;5076168;28;19926;-80
2022/04/30 13:55:19;;;;;;;;;;;28.00;42.80;;;;;;5076589;28;19904;-80
2022/04/30 13:57:44;;;;;;;;;;;29.70;41.50;;;;;;5076139;28;19904;-80
2022/04/30 14:00:15;;;;;;;;;;;30.90;39.80;;;;;;5075987;28;19908;-80
2022/04/30 14:02:41;;;;;;;;;;;31.30;39.20;;;;;;5076208;28;19904;-79
2022/04/30 14:05:07;;;;;;;;;;;30.30;39.30;;;;;;5076042;28;19908;-78
2022/04/30 14:07:32;;;;;;;;;;;29.10;40.70;;;;;;5075931;28;20284;-79
2022/04/30 14:09:58;;;;;;;;;;;28.80;41.20;;;;;;5076018;28;19916;-78
2022/04/30 14:12:24;;;;;;;;;;;29.60;42.00;;;;;;5075828;28;19905;-79
2022/04/30 14:14:58;;;;;;;;;;;28.90;42.70;;;;;;5075735;28;19971;-80
2022/04/30 14:20:12;;;;;;;;;;;28.40;43.00;;;;;;5075536;28;19916;-78
2022/04/30 14:22:38;;;;;;;;;;;28.30;43.70;;;;;;5075640;28;19904;-80
2022/04/30 14:25:07;;;;;;;;;;;28.30;43.60;;;;;;5075588;28;19919;-79
2022/04/30 14:27:37;;;;;;;;;;;28.70;42.70;;;;;;5075576;28;19994;-79
2022/04/30 14:30:04;;;;;;;;;;;29.40;42.40;;;;;;5075654;28;19965;-79
2022/04/30 14:32:29;;;;;;;;;;;29.30;42.20;;;;;;5075646;28;19912;-78
2022/04/30 14:34:56;;;;;;;;;;;28.70;42.50;;;;;;5057461;28;20288;-78
2022/04/30 14:37:22;;;;;;;;;;;29.30;42.70;;;;;;5075234;28;19923;-78
2022/04/30 14:39:47;;;;;;;;;;;28.10;43.00;;;;;;5075269;28;19999;-78
2022/04/30 14:42:13;;;;;;;;;;;27.10;44.20;;;;;;5075185;28;19905;-79
2022/04/30 14:44:40;;;;;;;;;;;27.40;44.60;;;;;;5075157;28;19911;-78
2022/04/30 14:47:08;;;;;;;;;;;28.00;43.40;;;;;;5075184;28;19999;-79
2022/04/30 14:49:34;;;;;;;;;;;29.00;43.40;;;;;;5075067;28;19931;-78
2022/04/30 14:51:59;;;;;;;;;;;29.20;42.60;;;;;;5075199;28;19905;-78
2022/04/30 14:54:25;;;;;;;;;;;29.20;42.70;;;;;;5075042;28;19904;-79
2022/04/30 14:56:50;;;;;;;;;;;29.70;42.70;;;;;;5074949;28;19904;-80
2022/04/30 14:59:16;;;;;;;;;;;29.30;43.20;;;;;;5074922;28;20289;-79
2022/04/30 15:01:41;;;;;;;;;;;27.60;44.70;;;;;;5074989;28;19904;-79
2022/04/30 15:04:07;;;;;;;;;;;26.90;45.60;;;;;;5075060;28;19911;-77
2022/04/30 15:06:33;;;;;;;;;;;26.80;45.60;;;;;;5074730;28;19942;-79
2022/04/30 15:08:59;;;;;;;;;;;26.90;45.90;;;;;;5074979;28;20042;-79